createdAt,value
2022-11-29T00:01:38.534Z,11.48
2022-11-29T00:04:09.938Z,11.21
2022-11-29T00:06:37.841Z,11.38
2022-11-29T00:09:09.894Z,11.14
2022-11-29T00:11:56.717Z,11.43
2022-11-29T00:14:28.526Z,11.43
2022-11-29T00:16:59.296Z,11.36
2022-11-29T00:19:27.409Z,11.17
2022-11-29T00:21:56.004Z,11.32
2022-11-29T00:24:24.388Z,11.34
2022-11-29T00:26:52.936Z,11.21
2022-11-29T00:29:20.966Z,11.26
2022-11-29T00:31:50.217Z,11.08
2022-11-29T00:34:18.186Z,11.22
2022-11-29T00:36:46.457Z,11.20
2022-11-29T00:39:16.260Z,11.10
2022-11-29T00:41:44.513Z,11.15
2022-11-29T00:44:19.664Z,11.14
2022-11-29T00:46:48.258Z,11.13
2022-11-29T00:49:17.822Z,10.98
2022-11-29T00:51:46.241Z,10.79
2022-11-29T00:54:14.259Z,10.75
2022-11-29T00:56:42.272Z,11.04
2022-11-29T00:59:10.966Z,11.01
2022-11-29T01:01:38.943Z,11.01
2022-11-29T01:04:07.166Z,10.84
2022-11-29T01:06:38.728Z,10.79
2022-11-29T01:09:07.163Z,10.94
2022-11-29T01:11:35.820Z,10.82
2022-11-29T01:14:04.750Z,10.92
2022-11-29T01:16:34.532Z,10.91
2022-11-29T01:19:02.635Z,10.86
2022-11-29T01:21:30.966Z,10.74
2022-11-29T01:24:01.616Z,10.55
2022-11-29T01:26:31.741Z,10.74
2022-11-29T01:29:00.869Z,10.57
2022-11-29T01:31:30.638Z,10.77
2022-11-29T01:34:00.529Z,10.57
2022-11-29T01:36:30.222Z,10.69
2022-11-29T01:39:02.252Z,10.74
2022-11-29T01:41:31.879Z,10.71
2022-11-29T01:44:03.759Z,10.55
2022-11-29T01:46:34.001Z,10.35
2022-11-29T01:49:05.571Z,10.58
2022-11-29T01:51:35.998Z,10.57
2022-11-29T01:54:06.416Z,10.56
2022-11-29T01:56:35.822Z,10.62
2022-11-29T01:59:07.932Z,10.61
2022-11-29T02:01:37.200Z,10.30
2022-11-29T02:04:05.471Z,10.56
2022-11-29T02:06:34.171Z,10.38
2022-11-29T02:09:02.375Z,10.43
2022-11-29T02:12:05.849Z,10.55
2022-11-29T02:15:00.148Z,10.52
2022-11-29T02:17:34.435Z,10.41
2022-11-29T02:20:44.315Z,10.38
2022-11-29T02:23:34.358Z,10.43
2022-11-29T02:26:17.193Z,10.27
2022-11-29T02:29:42.133Z,10.22
2022-11-29T02:33:00.935Z,10.33
2022-11-29T02:35:45.045Z,10.35
2022-11-29T02:38:37.067Z,10.32
2022-11-29T02:41:31.259Z,10.12
2022-11-29T02:44:24.426Z,10.12
2022-11-29T02:47:09.305Z,10.18
2022-11-29T02:49:59.479Z,10.25
2022-11-29T02:52:37.684Z,10.13
2022-11-29T02:55:11.770Z,9.98
2022-11-29T02:57:44.582Z,10.03
2022-11-29T03:00:17.521Z,10.19
2022-11-29T03:02:54.481Z,10.13
2022-11-29T03:05:31.298Z,10.12
2022-11-29T03:08:08.919Z,9.92
2022-11-29T03:10:51.503Z,9.94
2022-11-29T03:13:26.187Z,10.00
2022-11-29T03:16:01.084Z,9.93
2022-11-29T03:18:35.797Z,10.16
2022-11-29T03:21:15.294Z,10.16
2022-11-29T03:23:49.639Z,10.10
2022-11-29T03:26:22.837Z,9.93
2022-11-29T03:28:58.665Z,9.78
2022-11-29T03:31:33.533Z,10.07
2022-11-29T03:34:12.370Z,10.05
2022-11-29T03:36:49.054Z,10.06
2022-11-29T03:39:24.235Z,9.80
2022-11-29T03:42:00.134Z,9.79
2022-11-29T03:44:32.559Z,10.13
2022-11-29T03:47:06.037Z,9.96
2022-11-29T03:49:40.485Z,10.04
2022-11-29T03:52:18.131Z,10.15
2022-11-29T03:54:58.956Z,10.09
2022-11-29T03:57:36.291Z,10.16
2022-11-29T04:00:08.616Z,10.07
2022-11-29T04:03:13.134Z,10.16
2022-11-29T04:06:07.908Z,10.06
2022-11-29T04:09:00.366Z,10.17
2022-11-29T04:12:05.925Z,10.20
2022-11-29T04:15:15.209Z,10.22
2022-11-29T04:18:16.000Z,10.19
2022-11-29T04:21:14.359Z,10.09
2022-11-29T04:24:00.352Z,10.19
2022-11-29T04:27:24.826Z,10.08
2022-11-29T04:30:07.338Z,10.12
2022-11-29T04:33:14.202Z,10.19
2022-11-29T04:36:06.799Z,10.12
2022-11-29T04:39:04.334Z,10.19
2022-11-29T04:41:54.483Z,10.20
2022-11-29T04:44:43.136Z,10.00
2022-11-29T04:47:35.544Z,10.21
2022-11-29T04:50:26.679Z,10.21
2022-11-29T04:53:25.530Z,10.05
2022-11-29T04:56:02.992Z,10.15
2022-11-29T04:58:38.995Z,9.92
2022-11-29T05:01:16.676Z,10.23
2022-11-29T05:03:56.909Z,10.08
2022-11-29T05:06:34.542Z,10.23
2022-11-29T05:09:13.479Z,10.20
2022-11-29T05:11:55.181Z,10.18
2022-11-29T05:14:32.437Z,10.25
2022-11-29T05:17:22.821Z,10.12
2022-11-29T05:20:02.442Z,10.17
2022-11-29T05:22:37.228Z,10.21
2022-11-29T05:25:31.828Z,10.24
2022-11-29T05:28:10.027Z,9.94
2022-11-29T05:31:03.638Z,10.20
2022-11-29T05:33:50.096Z,10.23
2022-11-29T05:36:29.895Z,10.28
2022-11-29T05:39:11.177Z,10.29
2022-11-29T05:41:56.938Z,10.30
2022-11-29T05:44:32.316Z,10.34
2022-11-29T05:47:03.088Z,10.32
2022-11-29T05:49:39.933Z,10.24
2022-11-29T05:52:24.978Z,10.27
2022-11-29T05:55:08.427Z,10.27
2022-11-29T05:57:43.441Z,10.14
2022-11-29T06:00:15.105Z,10.35
2022-11-29T06:02:50.267Z,10.22
2022-11-29T06:05:27.474Z,10.11
2022-11-29T06:08:04.454Z,10.31
2022-11-29T06:10:36.782Z,10.37
2022-11-29T06:13:18.805Z,10.33
2022-11-29T06:16:09.846Z,10.34
2022-11-29T06:18:58.406Z,10.19
2022-11-29T06:21:37.407Z,10.45
2022-11-29T06:24:28.162Z,10.34
2022-11-29T06:27:10.701Z,10.32
2022-11-29T06:29:46.301Z,10.15
2022-11-29T06:32:25.678Z,10.45
2022-11-29T06:34:59.666Z,10.46
2022-11-29T06:37:34.815Z,10.41
2022-11-29T06:40:04.005Z,10.32
2022-11-29T06:42:31.893Z,10.43
2022-11-29T06:45:00.725Z,10.37
2022-11-29T06:47:32.638Z,10.30
2022-11-29T06:50:17.033Z,10.46
2022-11-29T06:52:54.604Z,10.49
2022-11-29T06:55:29.017Z,10.45
2022-11-29T06:58:06.196Z,10.38
2022-11-29T07:00:43.632Z,10.23
2022-11-29T07:03:34.574Z,10.32
2022-11-29T07:06:10.321Z,10.47
2022-11-29T07:08:41.966Z,10.38
2022-11-29T07:11:15.216Z,10.42
2022-11-29T07:13:44.246Z,10.40
2022-11-29T07:16:19.430Z,10.57
2022-11-29T07:18:56.195Z,10.51
2022-11-29T07:21:37.213Z,10.36
2022-11-29T07:24:17.988Z,10.59
2022-11-29T07:26:58.040Z,10.55
2022-11-29T07:29:37.359Z,10.53
2022-11-29T07:32:17.090Z,10.33
2022-11-29T07:34:56.774Z,10.46
2022-11-29T07:37:35.403Z,10.62
2022-11-29T07:40:12.301Z,10.64
2022-11-29T07:42:52.554Z,10.57
2022-11-29T07:45:27.520Z,10.66
2022-11-29T07:47:55.453Z,10.61
2022-11-29T07:50:23.954Z,10.49
2022-11-29T07:52:52.032Z,10.48
2022-11-29T07:55:24.283Z,10.44
2022-11-29T07:57:52.974Z,10.57
2022-11-29T08:00:21.862Z,10.65
2022-11-29T08:02:51.339Z,10.53
2022-11-29T08:05:19.649Z,10.64
2022-11-29T08:07:47.966Z,10.66
2022-11-29T08:10:17.584Z,10.52
2022-11-29T08:12:50.118Z,10.61
2022-11-29T08:15:18.675Z,10.61
2022-11-29T08:17:47.133Z,10.57
2022-11-29T08:20:16.550Z,10.59
2022-11-29T08:22:44.889Z,10.58
2022-11-29T08:25:13.641Z,10.43
2022-11-29T08:27:41.648Z,10.46
2022-11-29T08:30:11.435Z,10.53
2022-11-29T08:32:39.472Z,10.42
2022-11-29T08:35:07.495Z,10.52
2022-11-29T08:37:35.447Z,10.47
2022-11-29T08:40:04.608Z,10.33
2022-11-29T08:42:32.401Z,10.17
2022-11-29T08:45:00.185Z,10.51
2022-11-29T08:47:38.404Z,10.41
2022-11-29T08:50:12.230Z,10.52
2022-11-29T08:52:59.960Z,10.50
2022-11-29T08:55:32.436Z,10.42
2022-11-29T08:58:03.632Z,10.49
2022-11-29T09:00:32.612Z,10.44
2022-11-29T09:03:17.914Z,10.45
2022-11-29T09:05:45.875Z,10.42
2022-11-29T09:08:14.019Z,10.42
2022-11-29T09:10:44.816Z,10.16
2022-11-29T09:13:13.423Z,10.42
2022-11-29T09:15:42.621Z,10.33
2022-11-29T09:18:12.389Z,10.35
2022-11-29T09:20:43.725Z,10.42
2022-11-29T09:23:12.130Z,10.37
2022-11-29T09:25:40.284Z,10.44
2022-11-29T09:28:08.656Z,10.46
2022-11-29T09:30:38.296Z,10.40
2022-11-29T09:33:06.252Z,10.42
2022-11-29T09:35:36.157Z,10.47
2022-11-29T09:38:06.120Z,10.56
2022-11-29T09:40:39.801Z,10.59
2022-11-29T09:43:19.036Z,10.53
2022-11-29T09:45:51.283Z,10.61
2022-11-29T09:48:54.554Z,10.66
2022-11-29T09:51:32.521Z,10.66
2022-11-29T09:54:17.588Z,10.70
2022-11-29T09:56:48.440Z,10.69
2022-11-29T09:59:22.950Z,10.64
2022-11-29T10:01:56.421Z,10.73
2022-11-29T10:04:28.981Z,10.69
2022-11-29T10:07:03.780Z,10.77
2022-11-29T10:09:38.221Z,10.81
2022-11-29T10:12:15.414Z,10.63
2022-11-29T10:14:50.082Z,10.88
2022-11-29T10:17:31.637Z,10.94
2022-11-29T10:20:04.554Z,10.88
2022-11-29T10:22:42.894Z,10.99
2022-11-29T10:25:20.373Z,10.96
2022-11-29T10:27:48.275Z,10.96
2022-11-29T10:30:17.193Z,11.03
2022-11-29T10:32:51.647Z,10.97
2022-11-29T10:35:20.885Z,11.03
2022-11-29T10:38:22.746Z,10.96
2022-11-29T10:40:47.936Z,11.08
2022-11-29T10:43:16.540Z,11.01
2022-11-29T10:45:50.564Z,11.02
2022-11-29T10:48:21.025Z,11.08
2022-11-29T10:50:51.697Z,11.11
2022-11-29T10:53:25.259Z,11.11
2022-11-29T10:56:00.290Z,11.15
2022-11-29T10:58:30.117Z,11.11
2022-11-29T11:01:01.286Z,11.16
2022-11-29T11:03:39.890Z,11.18
2022-11-29T11:06:12.087Z,11.15
2022-11-29T11:08:44.950Z,11.16
2022-11-29T11:11:13.496Z,10.96
2022-11-29T11:13:41.944Z,11.05
2022-11-29T11:16:17.088Z,11.09
2022-11-29T11:18:46.135Z,11.27
2022-11-29T11:21:16.979Z,11.33
2022-11-29T11:23:54.734Z,11.40
2022-11-29T11:26:23.699Z,11.50
2022-11-29T11:28:56.141Z,11.67
2022-11-29T11:31:31.572Z,11.82
2022-11-29T11:34:18.972Z,11.95
2022-11-29T11:36:47.123Z,11.99
2022-11-29T11:39:22.836Z,12.08
2022-11-29T11:42:10.100Z,12.04
2022-11-29T11:44:49.816Z,11.90
2022-11-29T11:47:21.238Z,11.99
2022-11-29T11:49:51.207Z,11.98
2022-11-29T11:52:23.665Z,11.93
2022-11-29T11:54:55.737Z,11.92
2022-11-29T11:57:26.626Z,11.89
2022-11-29T11:59:57.855Z,11.80
2022-11-29T12:02:30.002Z,11.82
2022-11-29T12:05:03.589Z,11.82
2022-11-29T12:08:06.601Z,11.82
2022-11-29T12:10:30.021Z,11.76
2022-11-29T12:13:00.440Z,11.75
2022-11-29T12:15:32.351Z,11.64
2022-11-29T12:18:07.113Z,11.66
2022-11-29T12:20:40.600Z,11.72
2022-11-29T12:23:24.537Z,11.58
2022-11-29T12:25:59.030Z,11.72
2022-11-29T12:28:29.976Z,11.67
2022-11-29T12:31:08.855Z,11.70
2022-11-29T12:33:49.500Z,11.67
2022-11-29T12:36:32.052Z,11.64
2022-11-29T12:39:40.577Z,11.61
2022-11-29T12:42:19.649Z,11.57
2022-11-29T12:44:57.449Z,11.34
2022-11-29T12:47:36.211Z,11.51
2022-11-29T12:50:25.557Z,11.51
2022-11-29T12:53:07.648Z,11.26
2022-11-29T12:55:49.419Z,11.32
2022-11-29T12:58:29.031Z,11.48
2022-11-29T13:01:10.516Z,11.49
2022-11-29T13:03:52.598Z,11.49
2022-11-29T13:06:29.199Z,11.43
2022-11-29T13:09:16.600Z,11.45
2022-11-29T13:11:54.700Z,11.45
2022-11-29T13:14:42.506Z,11.47
2022-11-29T13:17:23.078Z,11.45
2022-11-29T13:19:55.933Z,11.27
2022-11-29T13:22:32.687Z,11.54
2022-11-29T13:25:04.234Z,11.46
2022-11-29T13:27:36.139Z,11.52
2022-11-29T13:30:07.124Z,11.54
2022-11-29T13:32:37.368Z,11.59
2022-11-29T13:35:09.702Z,11.64
2022-11-29T13:37:43.689Z,11.46
2022-11-29T13:40:25.834Z,11.72
2022-11-29T13:43:02.365Z,11.74
2022-11-29T13:45:38.830Z,11.65
2022-11-29T13:48:27.764Z,11.74
2022-11-29T13:50:57.304Z,11.75
2022-11-29T13:53:27.013Z,11.58
2022-11-29T13:56:01.668Z,11.80
2022-11-29T13:58:38.539Z,11.82
2022-11-29T14:01:12.785Z,11.83
2022-11-29T14:03:42.809Z,11.74
2022-11-29T14:06:13.992Z,11.76
2022-11-29T14:09:17.333Z,11.88
2022-11-29T14:11:44.503Z,11.86
2022-11-29T14:14:23.898Z,11.91
2022-11-29T14:16:57.085Z,11.92
2022-11-29T14:19:31.622Z,11.88
2022-11-29T14:22:31.667Z,11.97
2022-11-29T14:25:49.761Z,11.98
2022-11-29T14:28:30.235Z,11.99
2022-11-29T14:30:58.596Z,11.95
2022-11-29T14:34:03.575Z,11.93
2022-11-29T14:36:52.600Z,11.90
2022-11-29T14:39:31.505Z,11.77
2022-11-29T14:42:14.710Z,11.80
2022-11-29T14:44:51.478Z,11.83
2022-11-29T14:47:31.920Z,11.82
2022-11-29T14:50:06.952Z,11.77
2022-11-29T14:52:38.879Z,11.66
2022-11-29T14:55:29.117Z,11.81
2022-11-29T14:58:22.766Z,11.81
2022-11-29T15:01:11.074Z,11.79
2022-11-29T15:03:47.768Z,11.71
2022-11-29T15:06:25.669Z,11.64
2022-11-29T15:09:01.967Z,11.72
2022-11-29T15:11:53.027Z,11.71
2022-11-29T15:14:34.896Z,11.71
2022-11-29T15:17:20.813Z,11.70
2022-11-29T15:20:16.394Z,11.68
2022-11-29T15:22:49.476Z,11.67
2022-11-29T15:25:19.859Z,11.67
2022-11-29T15:27:54.857Z,11.67
2022-11-29T15:30:30.990Z,11.68
2022-11-29T15:33:01.096Z,11.67
2022-11-29T15:35:29.449Z,11.68
2022-11-29T15:37:58.728Z,11.55
2022-11-29T15:40:34.763Z,11.66
2022-11-29T15:43:15.110Z,11.66
2022-11-29T15:45:49.061Z,11.57
2022-11-29T15:48:24.826Z,11.66
2022-11-29T15:50:58.509Z,11.62
2022-11-29T15:53:34.481Z,11.65
2022-11-29T15:56:05.136Z,11.63
2022-11-29T15:58:35.458Z,11.40
2022-11-29T16:01:07.549Z,11.59
2022-11-29T16:03:39.686Z,11.51
2022-11-29T16:06:19.839Z,11.53
2022-11-29T16:08:51.131Z,11.49
2022-11-29T16:11:24.074Z,11.58
2022-11-29T16:14:18.958Z,11.64
2022-11-29T16:16:50.154Z,11.65
2022-11-29T16:19:37.066Z,11.65
2022-11-29T16:22:14.787Z,11.34
2022-11-29T16:24:52.778Z,11.67
2022-11-29T16:27:22.863Z,11.56
2022-11-29T16:29:55.349Z,11.67
2022-11-29T16:32:34.705Z,11.53
2022-11-29T16:35:13.356Z,11.67
2022-11-29T16:37:43.336Z,11.66
2022-11-29T16:40:23.550Z,11.68
2022-11-29T16:43:23.940Z,11.53
2022-11-29T16:46:30.357Z,11.70
2022-11-29T16:49:01.199Z,11.67
2022-11-29T16:51:37.796Z,11.68
2022-11-29T16:54:21.765Z,11.69
2022-11-29T16:56:52.676Z,11.55
2022-11-29T16:59:37.706Z,11.54
2022-11-29T17:02:11.260Z,11.53
2022-11-29T17:04:39.204Z,11.55
2022-11-29T17:07:08.945Z,11.47
2022-11-29T17:09:37.013Z,11.60
2022-11-29T17:12:06.894Z,11.37
2022-11-29T17:14:35.040Z,11.44
2022-11-29T17:17:02.984Z,11.33
2022-11-29T17:22:50.697Z,11.24
2022-11-29T17:28:19.864Z,11.46
2022-11-29T17:31:04.142Z,11.08
2022-11-29T17:33:35.633Z,11.03
2022-11-29T17:36:44.372Z,11.06
2022-11-29T17:39:30.881Z,11.48
2022-11-29T17:42:09.437Z,11.20
2022-11-29T17:44:54.243Z,10.96
2022-11-29T17:47:36.962Z,11.23
2022-11-29T17:50:17.245Z,10.99
2022-11-29T17:52:52.412Z,11.14
2022-11-29T17:55:41.817Z,11.29
2022-11-29T17:58:43.910Z,10.96
2022-11-29T18:08:00.868Z,11.36
2022-11-29T18:11:03.192Z,11.16
2022-11-29T18:13:51.934Z,11.09
2022-11-29T18:17:04.263Z,11.35
2022-11-29T18:19:52.907Z,11.09
2022-11-29T18:22:46.716Z,11.34
2022-11-29T18:25:38.576Z,11.32
2022-11-29T18:35:06.880Z,11.08
2022-11-29T18:38:13.496Z,10.73
2022-11-29T18:40:54.708Z,11.12
2022-11-29T18:43:46.970Z,11.21
2022-11-29T18:46:40.832Z,11.05
2022-11-29T18:49:30.334Z,11.18
2022-11-29T18:52:10.749Z,11.16
2022-11-29T18:54:58.981Z,10.86
2022-11-29T18:57:27.319Z,10.68
2022-11-29T19:00:16.878Z,11.11
2022-11-29T19:04:00.595Z,11.08
2022-11-29T19:06:40.158Z,10.97
2022-11-29T19:10:00.510Z,10.54
2022-11-29T19:12:43.256Z,10.98
2022-11-29T19:16:00.284Z,10.96
2022-11-29T19:22:36.544Z,10.69
2022-11-29T19:31:54.278Z,10.92
2022-11-29T19:34:58.488Z,10.70
2022-11-29T19:37:44.145Z,10.84
2022-11-29T19:40:32.066Z,10.65
2022-11-29T19:50:14.488Z,10.75
2022-11-29T19:53:01.565Z,10.73
2022-11-29T19:55:53.336Z,10.69
2022-11-29T19:58:21.652Z,10.48
2022-11-29T20:00:49.441Z,10.42
2022-11-29T20:03:37.902Z,10.35
2022-11-29T20:06:37.200Z,10.42
2022-11-29T20:12:38.213Z,10.65
2022-11-29T20:15:55.922Z,10.37
2022-11-29T20:18:51.946Z,10.66
2022-11-29T20:21:56.546Z,10.68
2022-11-29T20:25:02.578Z,10.57
2022-11-29T20:28:01.415Z,10.46
2022-11-29T20:35:02.047Z,10.61
2022-11-29T20:56:01.564Z,10.19
2022-11-29T21:02:29.659Z,10.58
2022-11-29T21:05:45.811Z,10.15
2022-11-29T21:09:28.569Z,10.43
2022-11-29T21:15:56.553Z,10.63
2022-11-29T21:27:23.775Z,10.63
2022-11-29T21:29:53.516Z,10.56
2022-11-29T21:32:29.028Z,10.62
2022-11-29T21:34:57.156Z,10.62
2022-11-29T21:37:36.611Z,10.64
2022-11-29T21:40:04.950Z,10.53
2022-11-29T21:42:37.571Z,10.47
2022-11-29T21:45:14.885Z,10.50
2022-11-29T21:47:44.094Z,10.36
2022-11-29T21:50:13.564Z,10.66
2022-11-29T21:52:41.769Z,10.65
2022-11-29T21:55:10.418Z,10.42
2022-11-29T21:57:41.256Z,10.40
2022-11-29T22:00:10.520Z,10.62
2022-11-29T22:02:38.498Z,10.61
2022-11-29T22:05:07.997Z,10.61
2022-11-29T22:07:35.984Z,10.57
2022-11-29T22:10:09.915Z,10.49
2022-11-29T22:12:51.238Z,10.55
2022-11-29T22:15:24.462Z,10.46
2022-11-29T22:17:52.949Z,10.55
2022-11-29T22:20:21.145Z,10.52
2022-11-29T22:22:49.346Z,10.48
2022-11-29T22:25:17.412Z,10.27
2022-11-29T22:27:46.759Z,10.55
2022-11-29T22:30:14.960Z,10.48
2022-11-29T22:32:43.421Z,10.49
2022-11-29T22:35:11.272Z,10.53
2022-11-29T22:37:39.175Z,10.52
2022-11-29T22:40:08.461Z,10.42
2022-11-29T22:42:36.448Z,10.27
2022-11-29T22:45:06.437Z,10.49
2022-11-29T22:47:34.431Z,10.30
2022-11-29T22:50:02.465Z,10.31
2022-11-29T22:52:30.670Z,10.43
2022-11-29T22:55:04.285Z,10.45
2022-11-29T22:57:33.261Z,10.29
2022-11-29T23:00:01.847Z,10.34
2022-11-29T23:02:31.293Z,10.42
2022-11-29T23:04:59.657Z,10.43
2022-11-29T23:07:28.199Z,10.37
2022-11-29T23:09:56.607Z,10.37
2022-11-29T23:12:25.258Z,10.40
2022-11-29T23:14:56.569Z,10.21
2022-11-29T23:17:25.041Z,10.38
2022-11-29T23:19:54.819Z,10.31
2022-11-29T23:22:23.347Z,10.05
2022-11-29T23:24:51.269Z,10.43
2022-11-29T23:27:19.567Z,10.37
2022-11-29T23:29:47.852Z,10.26
2022-11-29T23:32:15.745Z,10.34
2022-11-29T23:34:44.164Z,10.27
2022-11-29T23:37:14.519Z,10.35
2022-11-29T23:39:42.450Z,10.25
2022-11-29T23:42:10.796Z,10.42
2022-11-29T23:44:39.123Z,10.41
2022-11-29T23:47:07.151Z,10.18
2022-11-29T23:49:40.183Z,10.21
2022-11-29T23:52:09.489Z,10.42
2022-11-29T23:54:38.819Z,10.35
2022-11-29T23:57:07.180Z,10.24
2022-11-29T23:59:35.091Z,10.38
